sensor_id;sensor_type;location;lat;lon;timestamp;P1;durP1;ratioP1;P2;durP2;ratioP2
79399;SDS011;68856;45.586;10.264;2023-04-24T00:00:30;6.00;;;4.65;;
79399;SDS011;68856;45.586;10.264;2023-04-24T00:02:57;6.65;;;4.63;;
79399;SDS011;68856;45.586;10.264;2023-04-24T00:05:23;5.18;;;4.35;;
79399;SDS011;68856;45.586;10.264;2023-04-24T00:07:50;4.53;;;3.72;;
79399;SDS011;68856;45.586;10.264;2023-04-24T00:10:20;3.67;;;3.33;;
79399;SDS011;68856;45.586;10.264;2023-04-24T00:12:46;4.40;;;3.88;;
79399;SDS011;68856;45.586;10.264;2023-04-24T00:15:13;6.78;;;4.75;;
79399;SDS011;68856;45.586;10.264;2023-04-24T00:17:39;6.88;;;5.47;;
79399;SDS011;68856;45.586;10.264;2023-04-24T00:20:05;6.00;;;4.78;;
79399;SDS011;68856;45.586;10.264;2023-04-24T00:22:32;7.30;;;5.43;;
79399;SDS011;68856;45.586;10.264;2023-04-24T00:24:58;5.40;;;4.80;;
79399;SDS011;68856;45.586;10.264;2023-04-24T00:27:25;5.80;;;4.40;;
79399;SDS011;68856;45.586;10.264;2023-04-24T00:29:51;5.18;;;4.57;;
79399;SDS011;68856;45.586;10.264;2023-04-24T00:32:17;5.75;;;4.57;;
79399;SDS011;68856;45.586;10.264;2023-04-24T00:34:43;5.22;;;4.68;;
79399;SDS011;68856;45.586;10.264;2023-04-24T00:37:10;7.45;;;4.70;;
79399;SDS011;68856;45.586;10.264;2023-04-24T00:39:36;6.00;;;5.25;;
79399;SDS011;68856;45.586;10.264;2023-04-24T00:42:03;6.95;;;5.55;;
79399;SDS011;68856;45.586;10.264;2023-04-24T00:44:31;7.57;;;5.05;;
79399;SDS011;68856;45.586;10.264;2023-04-24T00:46:59;6.03;;;5.20;;
79399;SDS011;68856;45.586;10.264;2023-04-24T00:49:26;6.75;;;4.88;;
79399;SDS011;68856;45.586;10.264;2023-04-24T00:51:52;4.82;;;4.32;;
79399;SDS011;68856;45.586;10.264;2023-04-24T00:54:19;6.70;;;4.90;;
79399;SDS011;68856;45.586;10.264;2023-04-24T00:56:45;7.32;;;4.80;;
79399;SDS011;68856;45.586;10.264;2023-04-24T00:59:12;7.10;;;5.30;;
79399;SDS011;68856;45.586;10.264;2023-04-24T01:01:41;4.90;;;4.30;;
79399;SDS011;68856;45.586;10.264;2023-04-24T01:04:08;5.63;;;4.45;;
79399;SDS011;68856;45.586;10.264;2023-04-24T01:06:37;5.45;;;4.60;;
79399;SDS011;68856;45.586;10.264;2023-04-24T01:09:05;6.03;;;5.00;;
79399;SDS011;68856;45.586;10.264;2023-04-24T01:11:35;6.05;;;4.90;;
79399;SDS011;68856;45.586;10.264;2023-04-24T01:14:02;7.10;;;5.15;;
79399;SDS011;68856;45.586;10.264;2023-04-24T01:16:29;6.38;;;5.18;;
79399;SDS011;68856;45.586;10.264;2023-04-24T01:18:55;6.32;;;4.65;;
79399;SDS011;68856;45.586;10.264;2023-04-24T01:21:21;5.47;;;4.45;;
79399;SDS011;68856;45.586;10.264;2023-04-24T01:26:18;4.22;;;3.83;;
79399;SDS011;68856;45.586;10.264;2023-04-24T01:28:45;4.85;;;4.13;;
79399;SDS011;68856;45.586;10.264;2023-04-24T01:31:12;5.10;;;3.97;;
79399;SDS011;68856;45.586;10.264;2023-04-24T01:33:40;5.53;;;4.05;;
79399;SDS011;68856;45.586;10.264;2023-04-24T01:36:08;4.97;;;4.47;;
79399;SDS011;68856;45.586;10.264;2023-04-24T01:38:36;5.28;;;4.53;;
79399;SDS011;68856;45.586;10.264;2023-04-24T01:41:02;4.82;;;4.25;;
79399;SDS011;68856;45.586;10.264;2023-04-24T01:43:29;4.78;;;4.25;;
79399;SDS011;68856;45.586;10.264;2023-04-24T01:45:56;7.20;;;5.20;;
79399;SDS011;68856;45.586;10.264;2023-04-24T01:48:23;5.00;;;4.05;;
79399;SDS011;68856;45.586;10.264;2023-04-24T01:50:49;4.93;;;4.43;;
79399;SDS011;68856;45.586;10.264;2023-04-24T01:53:15;5.75;;;4.45;;
79399;SDS011;68856;45.586;10.264;2023-04-24T01:55:41;5.20;;;3.78;;
79399;SDS011;68856;45.586;10.264;2023-04-24T01:58:08;5.72;;;4.28;;
79399;SDS011;68856;45.586;10.264;2023-04-24T02:00:34;4.80;;;4.22;;
79399;SDS011;68856;45.586;10.264;2023-04-24T02:03:01;7.00;;;4.85;;
79399;SDS011;68856;45.586;10.264;2023-04-24T02:05:27;4.50;;;4.00;;
79399;SDS011;68856;45.586;10.264;2023-04-24T02:07:53;5.28;;;4.47;;
79399;SDS011;68856;45.586;10.264;2023-04-24T02:10:20;4.55;;;4.10;;
79399;SDS011;68856;45.586;10.264;2023-04-24T02:12:46;5.95;;;4.72;;
79399;SDS011;68856;45.586;10.264;2023-04-24T02:15:12;4.47;;;4.07;;
79399;SDS011;68856;45.586;10.264;2023-04-24T02:17:38;6.22;;;4.68;;
79399;SDS011;68856;45.586;10.264;2023-04-24T02:20:06;4.78;;;4.05;;
79399;SDS011;68856;45.586;10.264;2023-04-24T02:22:33;4.97;;;4.40;;
79399;SDS011;68856;45.586;10.264;2023-04-24T02:24:59;4.78;;;4.32;;
79399;SDS011;68856;45.586;10.264;2023-04-24T02:27:25;6.90;;;4.38;;
79399;SDS011;68856;45.586;10.264;2023-04-24T02:29:52;4.78;;;4.00;;
79399;SDS011;68856;45.586;10.264;2023-04-24T02:32:18;4.63;;;3.83;;
79399;SDS011;68856;45.586;10.264;2023-04-24T02:34:44;4.30;;;3.88;;
79399;SDS011;68856;45.586;10.264;2023-04-24T02:37:10;4.57;;;4.18;;
79399;SDS011;68856;45.586;10.264;2023-04-24T02:39:37;4.30;;;3.85;;
79399;SDS011;68856;45.586;10.264;2023-04-24T02:42:03;6.53;;;4.07;;
79399;SDS011;68856;45.586;10.264;2023-04-24T02:44:30;4.60;;;3.92;;
79399;SDS011;68856;45.586;10.264;2023-04-24T02:46:56;4.63;;;3.85;;
79399;SDS011;68856;45.586;10.264;2023-04-24T02:49:22;5.28;;;4.38;;
79399;SDS011;68856;45.586;10.264;2023-04-24T02:51:49;8.25;;;4.47;;
79399;SDS011;68856;45.586;10.264;2023-04-24T02:54:15;5.80;;;5.20;;
79399;SDS011;68856;45.586;10.264;2023-04-24T02:56:41;5.38;;;4.35;;
79399;SDS011;68856;45.586;10.264;2023-04-24T02:59:08;5.15;;;4.45;;
79399;SDS011;68856;45.586;10.264;2023-04-24T03:01:35;5.22;;;4.57;;
79399;SDS011;68856;45.586;10.264;2023-04-24T03:04:01;5.07;;;4.57;;
79399;SDS011;68856;45.586;10.264;2023-04-24T03:06:28;8.93;;;5.22;;
79399;SDS011;68856;45.586;10.264;2023-04-24T03:08:56;6.13;;;4.55;;
79399;SDS011;68856;45.586;10.264;2023-04-24T03:11:22;4.72;;;4.22;;
79399;SDS011;68856;45.586;10.264;2023-04-24T03:13:48;5.00;;;4.18;;
79399;SDS011;68856;45.586;10.264;2023-04-24T03:16:15;5.47;;;4.40;;
79399;SDS011;68856;45.586;10.264;2023-04-24T03:18:41;4.00;;;3.60;;
79399;SDS011;68856;45.586;10.264;2023-04-24T03:21:07;4.00;;;3.58;;
79399;SDS011;68856;45.586;10.264;2023-04-24T03:23:33;3.97;;;3.50;;
79399;SDS011;68856;45.586;10.264;2023-04-24T03:26:00;5.18;;;4.68;;
79399;SDS011;68856;45.586;10.264;2023-04-24T03:28:27;4.63;;;4.22;;
79399;SDS011;68856;45.586;10.264;2023-04-24T03:30:53;4.07;;;3.40;;
79399;SDS011;68856;45.586;10.264;2023-04-24T03:33:19;5.38;;;3.83;;
79399;SDS011;68856;45.586;10.264;2023-04-24T03:35:45;5.05;;;3.95;;
79399;SDS011;68856;45.586;10.264;2023-04-24T03:38:12;5.90;;;4.22;;
79399;SDS011;68856;45.586;10.264;2023-04-24T03:40:38;5.63;;;4.43;;
79399;SDS011;68856;45.586;10.264;2023-04-24T03:43:04;4.80;;;3.85;;
79399;SDS011;68856;45.586;10.264;2023-04-24T03:45:31;6.28;;;4.40;;
79399;SDS011;68856;45.586;10.264;2023-04-24T03:47:57;5.60;;;4.50;;
79399;SDS011;68856;45.586;10.264;2023-04-24T03:50:23;5.13;;;4.40;;
79399;SDS011;68856;45.586;10.264;2023-04-24T03:52:51;5.25;;;4.65;;
79399;SDS011;68856;45.586;10.264;2023-04-24T03:55:17;4.88;;;4.38;;
79399;SDS011;68856;45.586;10.264;2023-04-24T03:57:44;4.45;;;4.05;;
79399;SDS011;68856;45.586;10.264;2023-04-24T04:00:10;4.80;;;4.13;;
79399;SDS011;68856;45.586;10.264;2023-04-24T04:02:37;4.88;;;4.38;;
79399;SDS011;68856;45.586;10.264;2023-04-24T04:05:03;5.97;;;4.70;;
79399;SDS011;68856;45.586;10.264;2023-04-24T04:07:30;5.35;;;4.20;;
79399;SDS011;68856;45.586;10.264;2023-04-24T04:09:56;6.22;;;4.75;;
79399;SDS011;68856;45.586;10.264;2023-04-24T04:12:22;5.95;;;4.00;;
79399;SDS011;68856;45.586;10.264;2023-04-24T04:14:48;5.55;;;4.43;;
79399;SDS011;68856;45.586;10.264;2023-04-24T04:17:15;3.15;;;2.90;;
79399;SDS011;68856;45.586;10.264;2023-04-24T04:19:41;4.38;;;3.13;;
79399;SDS011;68856;45.586;10.264;2023-04-24T04:22:07;2.88;;;2.58;;
79399;SDS011;68856;45.586;10.264;2023-04-24T04:24:33;3.50;;;3.20;;
79399;SDS011;68856;45.586;10.264;2023-04-24T04:27:03;3.22;;;2.92;;
79399;SDS011;68856;45.586;10.264;2023-04-24T04:29:30;3.78;;;3.45;;
79399;SDS011;68856;45.586;10.264;2023-04-24T04:31:57;4.97;;;4.30;;
79399;SDS011;68856;45.586;10.264;2023-04-24T04:34:23;4.53;;;4.00;;
79399;SDS011;68856;45.586;10.264;2023-04-24T04:36:50;6.32;;;4.40;;
79399;SDS011;68856;45.586;10.264;2023-04-24T04:39:16;5.90;;;4.22;;
79399;SDS011;68856;45.586;10.264;2023-04-24T04:41:43;3.72;;;3.42;;
79399;SDS011;68856;45.586;10.264;2023-04-24T04:44:13;3.85;;;3.47;;
79399;SDS011;68856;45.586;10.264;2023-04-24T04:46:40;4.30;;;3.75;;
79399;SDS011;68856;45.586;10.264;2023-04-24T04:49:06;4.53;;;4.13;;
79399;SDS011;68856;45.586;10.264;2023-04-24T04:51:34;4.15;;;3.35;;
79399;SDS011;68856;45.586;10.264;2023-04-24T04:54:00;3.20;;;2.60;;
79399;SDS011;68856;45.586;10.264;2023-04-24T04:56:26;2.60;;;2.40;;
79399;SDS011;68856;45.586;10.264;2023-04-24T04:58:53;3.03;;;2.28;;
79399;SDS011;68856;45.586;10.264;2023-04-24T05:01:19;4.45;;;2.97;;
79399;SDS011;68856;45.586;10.264;2023-04-24T05:03:48;3.33;;;2.55;;
79399;SDS011;68856;45.586;10.264;2023-04-24T05:06:14;3.42;;;3.10;;
79399;SDS011;68856;45.586;10.264;2023-04-24T05:08:40;2.95;;;2.63;;
79399;SDS011;68856;45.586;10.264;2023-04-24T05:11:06;3.20;;;2.92;;
79399;SDS011;68856;45.586;10.264;2023-04-24T05:13:33;3.05;;;2.70;;
79399;SDS011;68856;45.586;10.264;2023-04-24T05:15:59;3.33;;;2.95;;
79399;SDS011;68856;45.586;10.264;2023-04-24T05:18:25;3.92;;;2.88;;
79399;SDS011;68856;45.586;10.264;2023-04-24T05:20:51;2.50;;;2.30;;
79399;SDS011;68856;45.586;10.264;2023-04-24T05:23:18;3.38;;;2.33;;
79399;SDS011;68856;45.586;10.264;2023-04-24T05:25:44;2.67;;;2.40;;
79399;SDS011;68856;45.586;10.264;2023-04-24T05:28:11;2.22;;;2.03;;
79399;SDS011;68856;45.586;10.264;2023-04-24T05:30:37;2.65;;;2.45;;
79399;SDS011;68856;45.586;10.264;2023-04-24T05:33:03;2.65;;;2.45;;
79399;SDS011;68856;45.586;10.264;2023-04-24T05:35:30;2.45;;;1.92;;
79399;SDS011;68856;45.586;10.264;2023-04-24T05:37:56;2.83;;;2.30;;
79399;SDS011;68856;45.586;10.264;2023-04-24T05:40:23;3.47;;;2.60;;
79399;SDS011;68856;45.586;10.264;2023-04-24T05:42:49;2.33;;;2.13;;
79399;SDS011;68856;45.586;10.264;2023-04-24T05:45:15;3.28;;;2.33;;
79399;SDS011;68856;45.586;10.264;2023-04-24T05:47:42;2.30;;;2.10;;
79399;SDS011;68856;45.586;10.264;2023-04-24T05:50:09;3.08;;;2.50;;
79399;SDS011;68856;45.586;10.264;2023-04-24T05:52:35;2.42;;;2.17;;
79399;SDS011;68856;45.586;10.264;2023-04-24T05:55:02;3.63;;;2.25;;
79399;SDS011;68856;45.586;10.264;2023-04-24T05:57:28;2.85;;;2.63;;
79399;SDS011;68856;45.586;10.264;2023-04-24T05:59:55;2.55;;;2.35;;
79399;SDS011;68856;45.586;10.264;2023-04-24T06:02:21;2.20;;;2.08;;
79399;SDS011;68856;45.586;10.264;2023-04-24T06:04:47;2.47;;;2.28;;
79399;SDS011;68856;45.586;10.264;2023-04-24T06:07:14;2.92;;;2.65;;
79399;SDS011;68856;45.586;10.264;2023-04-24T06:09:40;1.85;;;1.67;;
79399;SDS011;68856;45.586;10.264;2023-04-24T06:12:06;2.20;;;1.95;;
79399;SDS011;68856;45.586;10.264;2023-04-24T06:14:33;3.03;;;2.40;;
79399;SDS011;68856;45.586;10.264;2023-04-24T06:17:00;3.15;;;2.85;;
79399;SDS011;68856;45.586;10.264;2023-04-24T06:19:26;2.78;;;2.45;;
79399;SDS011;68856;45.586;10.264;2023-04-24T06:21:52;2.10;;;2.00;;
79399;SDS011;68856;45.586;10.264;2023-04-24T06:24:18;3.13;;;2.05;;
79399;SDS011;68856;45.586;10.264;2023-04-24T06:26:45;2.95;;;2.75;;
79399;SDS011;68856;45.586;10.264;2023-04-24T06:29:11;1.65;;;1.55;;
79399;SDS011;68856;45.586;10.264;2023-04-24T06:31:37;2.20;;;1.88;;
79399;SDS011;68856;45.586;10.264;2023-04-24T06:34:04;2.78;;;2.08;;
79399;SDS011;68856;45.586;10.264;2023-04-24T06:36:30;2.83;;;1.95;;
79399;SDS011;68856;45.586;10.264;2023-04-24T06:38:59;2.70;;;2.25;;
79399;SDS011;68856;45.586;10.264;2023-04-24T06:41:25;3.40;;;2.53;;
79399;SDS011;68856;45.586;10.264;2023-04-24T06:43:52;3.05;;;2.63;;
79399;SDS011;68856;45.586;10.264;2023-04-24T06:46:18;2.88;;;2.17;;
79399;SDS011;68856;45.586;10.264;2023-04-24T06:48:47;2.63;;;2.10;;
79399;SDS011;68856;45.586;10.264;2023-04-24T06:51:13;4.88;;;1.73;;
79399;SDS011;68856;45.586;10.264;2023-04-24T06:53:39;2.40;;;2.08;;
79399;SDS011;68856;45.586;10.264;2023-04-24T06:56:05;2.38;;;1.77;;
79399;SDS011;68856;45.586;10.264;2023-04-24T06:58:32;4.80;;;2.30;;
79399;SDS011;68856;45.586;10.264;2023-04-24T07:00:58;3.22;;;2.58;;
79399;SDS011;68856;45.586;10.264;2023-04-24T07:03:24;4.43;;;3.35;;
79399;SDS011;68856;45.586;10.264;2023-04-24T07:05:50;8.35;;;5.53;;
79399;SDS011;68856;45.586;10.264;2023-04-24T07:08:18;9.02;;;5.40;;
79399;SDS011;68856;45.586;10.264;2023-04-24T07:10:45;7.18;;;4.15;;
79399;SDS011;68856;45.586;10.264;2023-04-24T07:13:11;7.05;;;4.80;;
79399;SDS011;68856;45.586;10.264;2023-04-24T07:15:38;5.10;;;3.40;;
79399;SDS011;68856;45.586;10.264;2023-04-24T07:18:05;3.88;;;2.70;;
79399;SDS011;68856;45.586;10.264;2023-04-24T07:20:32;2.90;;;2.33;;
79399;SDS011;68856;45.586;10.264;2023-04-24T07:22:59;2.40;;;2.20;;
79399;SDS011;68856;45.586;10.264;2023-04-24T07:25:25;2.83;;;2.30;;
79399;SDS011;68856;45.586;10.264;2023-04-24T07:27:51;1.50;;;1.30;;
79399;SDS011;68856;45.586;10.264;2023-04-24T07:30:18;1.70;;;1.60;;
79399;SDS011;68856;45.586;10.264;2023-04-24T07:32:44;1.42;;;1.10;;
79399;SDS011;68856;45.586;10.264;2023-04-24T07:35:10;2.00;;;1.85;;
79399;SDS011;68856;45.586;10.264;2023-04-24T07:37:36;2.33;;;1.27;;
79399;SDS011;68856;45.586;10.264;2023-04-24T07:40:03;1.30;;;1.20;;
79399;SDS011;68856;45.586;10.264;2023-04-24T07:42:29;1.40;;;1.30;;
79399;SDS011;68856;45.586;10.264;2023-04-24T07:44:56;1.77;;;1.42;;
79399;SDS011;68856;45.586;10.264;2023-04-24T07:47:22;1.52;;;1.42;;
79399;SDS011;68856;45.586;10.264;2023-04-24T07:49:48;2.00;;;1.80;;
79399;SDS011;68856;45.586;10.264;2023-04-24T07:52:15;2.08;;;1.92;;
79399;SDS011;68856;45.586;10.264;2023-04-24T07:54:41;1.52;;;1.42;;
79399;SDS011;68856;45.586;10.264;2023-04-24T07:57:07;2.55;;;2.35;;
79399;SDS011;68856;45.586;10.264;2023-04-24T07:59:34;3.25;;;2.95;;
79399;SDS011;68856;45.586;10.264;2023-04-24T08:02:00;2.72;;;2.53;;
79399;SDS011;68856;45.586;10.264;2023-04-24T08:04:26;2.83;;;2.63;;
79399;SDS011;68856;45.586;10.264;2023-04-24T08:06:53;2.97;;;2.78;;
79399;SDS011;68856;45.586;10.264;2023-04-24T08:09:19;3.10;;;2.80;;
79399;SDS011;68856;45.586;10.264;2023-04-24T08:11:45;3.40;;;2.35;;
79399;SDS011;68856;45.586;10.264;2023-04-24T08:14:11;2.28;;;2.13;;
79399;SDS011;68856;45.586;10.264;2023-04-24T08:16:38;1.50;;;1.35;;
79399;SDS011;68856;45.586;10.264;2023-04-24T08:19:04;1.63;;;1.52;;
79399;SDS011;68856;45.586;10.264;2023-04-24T08:21:31;2.35;;;1.90;;
79399;SDS011;68856;45.586;10.264;2023-04-24T08:23:57;1.70;;;1.52;;
79399;SDS011;68856;45.586;10.264;2023-04-24T08:26:24;1.75;;;1.33;;
79399;SDS011;68856;45.586;10.264;2023-04-24T08:28:50;1.65;;;1.55;;
79399;SDS011;68856;45.586;10.264;2023-04-24T08:31:16;1.95;;;1.85;;
79399;SDS011;68856;45.586;10.264;2023-04-24T08:33:43;1.45;;;1.33;;
79399;SDS011;68856;45.586;10.264;2023-04-24T08:36:10;1.27;;;1.17;;
79399;SDS011;68856;45.586;10.264;2023-04-24T08:38:37;1.50;;;1.40;;
79399;SDS011;68856;45.586;10.264;2023-04-24T08:41:03;1.42;;;1.33;;
79399;SDS011;68856;45.586;10.264;2023-04-24T08:43:30;1.50;;;1.40;;
79399;SDS011;68856;45.586;10.264;2023-04-24T08:46:01;1.50;;;1.40;;
79399;SDS011;68856;45.586;10.264;2023-04-24T08:48:29;1.85;;;1.40;;
79399;SDS011;68856;45.586;10.264;2023-04-24T08:50:57;1.40;;;1.30;;
79399;SDS011;68856;45.586;10.264;2023-04-24T08:53:24;1.60;;;1.50;;
79399;SDS011;68856;45.586;10.264;2023-04-24T08:55:51;1.85;;;1.73;;
79399;SDS011;68856;45.586;10.264;2023-04-24T08:58:21;1.20;;;1.17;;
79399;SDS011;68856;45.586;10.264;2023-04-24T09:00:54;1.67;;;1.58;;
79399;SDS011;68856;45.586;10.264;2023-04-24T09:03:20;1.60;;;1.50;;
79399;SDS011;68856;45.586;10.264;2023-04-24T09:05:47;2.00;;;1.90;;
79399;SDS011;68856;45.586;10.264;2023-04-24T09:08:16;1.70;;;1.60;;
79399;SDS011;68856;45.586;10.264;2023-04-24T09:10:44;2.28;;;1.67;;
79399;SDS011;68856;45.586;10.264;2023-04-24T09:13:10;1.20;;;0.85;;
79399;SDS011;68856;45.586;10.264;2023-04-24T09:15:38;1.25;;;1.00;;
79399;SDS011;68856;45.586;10.264;2023-04-24T09:18:06;1.50;;;1.38;;
79399;SDS011;68856;45.586;10.264;2023-04-24T09:20:32;1.30;;;1.20;;
79399;SDS011;68856;45.586;10.264;2023-04-24T09:23:01;1.48;;;1.38;;
79399;SDS011;68856;45.586;10.264;2023-04-24T09:25:33;1.17;;;1.10;;
79399;SDS011;68856;45.586;10.264;2023-04-24T09:28:04;0.90;;;0.90;;
79399;SDS011;68856;45.586;10.264;2023-04-24T09:30:31;1.10;;;1.00;;
79399;SDS011;68856;45.586;10.264;2023-04-24T09:33:10;0.80;;;0.73;;
79399;SDS011;68856;45.586;10.264;2023-04-24T09:35:49;1.30;;;0.90;;
79399;SDS011;68856;45.586;10.264;2023-04-24T09:38:17;1.13;;;1.10;;
79399;SDS011;68856;45.586;10.264;2023-04-24T09:40:52;0.90;;;0.90;;
79399;SDS011;68856;45.586;10.264;2023-04-24T09:43:18;1.50;;;1.40;;
79399;SDS011;68856;45.586;10.264;2023-04-24T09:45:44;1.20;;;1.20;;
79399;SDS011;68856;45.586;10.264;2023-04-24T09:48:11;1.40;;;1.30;;
79399;SDS011;68856;45.586;10.264;2023-04-24T09:50:37;1.83;;;1.73;;
79399;SDS011;68856;45.586;10.264;2023-04-24T09:53:04;2.10;;;1.83;;
79399;SDS011;68856;45.586;10.264;2023-04-24T09:55:38;2.33;;;2.13;;
79399;SDS011;68856;45.586;10.264;2023-04-24T09:58:09;1.70;;;1.60;;
79399;SDS011;68856;45.586;10.264;2023-04-24T10:00:35;2.60;;;2.40;;
79399;SDS011;68856;45.586;10.264;2023-04-24T10:03:03;2.10;;;2.00;;
79399;SDS011;68856;45.586;10.264;2023-04-24T10:05:31;2.33;;;1.67;;
79399;SDS011;68856;45.586;10.264;2023-04-24T10:08:02;2.05;;;1.83;;
79399;SDS011;68856;45.586;10.264;2023-04-24T10:10:30;1.42;;;1.33;;
79399;SDS011;68856;45.586;10.264;2023-04-24T10:12:59;1.67;;;1.58;;
79399;SDS011;68856;45.586;10.264;2023-04-24T10:15:26;1.88;;;1.75;;
79399;SDS011;68856;45.586;10.264;2023-04-24T10:17:53;1.63;;;1.52;;
79399;SDS011;68856;45.586;10.264;2023-04-24T10:20:21;2.13;;;1.90;;
79399;SDS011;68856;45.586;10.264;2023-04-24T10:22:50;2.10;;;1.90;;
79399;SDS011;68856;45.586;10.264;2023-04-24T10:25:19;2.33;;;2.03;;
79399;SDS011;68856;45.586;10.264;2023-04-24T10:27:47;2.50;;;2.30;;
79399;SDS011;68856;45.586;10.264;2023-04-24T10:30:14;2.65;;;1.75;;
79399;SDS011;68856;45.586;10.264;2023-04-24T10:32:41;2.20;;;2.00;;
79399;SDS011;68856;45.586;10.264;2023-04-24T10:35:08;2.08;;;1.88;;
79399;SDS011;68856;45.586;10.264;2023-04-24T10:37:38;2.70;;;2.50;;
79399;SDS011;68856;45.586;10.264;2023-04-24T10:40:07;3.33;;;2.80;;
79399;SDS011;68856;45.586;10.264;2023-04-24T10:42:35;3.05;;;2.78;;
79399;SDS011;68856;45.586;10.264;2023-04-24T10:45:06;3.22;;;2.20;;
79399;SDS011;68856;45.586;10.264;2023-04-24T10:47:41;2.60;;;2.40;;
79399;SDS011;68856;45.586;10.264;2023-04-24T10:50:09;2.60;;;2.40;;
79399;SDS011;68856;45.586;10.264;2023-04-24T10:52:49;2.60;;;2.40;;
79399;SDS011;68856;45.586;10.264;2023-04-24T10:55:39;2.42;;;2.22;;
79399;SDS011;68856;45.586;10.264;2023-04-24T10:58:08;1.88;;;1.75;;
79399;SDS011;68856;45.586;10.264;2023-04-24T11:00:39;2.80;;;1.83;;
79399;SDS011;68856;45.586;10.264;2023-04-24T11:03:25;2.95;;;1.83;;
79399;SDS011;68856;45.586;10.264;2023-04-24T11:05:53;2.85;;;1.90;;
79399;SDS011;68856;45.586;10.264;2023-04-24T11:08:23;2.78;;;2.35;;
79399;SDS011;68856;45.586;10.264;2023-04-24T11:13:23;2.05;;;1.95;;
79399;SDS011;68856;45.586;10.264;2023-04-24T11:18:49;2.30;;;2.10;;
79399;SDS011;68856;45.586;10.264;2023-04-24T11:21:19;2.42;;;2.22;;
79399;SDS011;68856;45.586;10.264;2023-04-24T11:23:47;2.35;;;2.15;;
79399;SDS011;68856;45.586;10.264;2023-04-24T11:26:21;2.75;;;2.42;;
79399;SDS011;68856;45.586;10.264;2023-04-24T11:28:50;3.05;;;2.30;;
79399;SDS011;68856;45.586;10.264;2023-04-24T11:31:49;2.35;;;2.17;;
79399;SDS011;68856;45.586;10.264;2023-04-24T11:34:14;1.95;;;1.75;;
79399;SDS011;68856;45.586;10.264;2023-04-24T11:36:47;1.98;;;1.88;;
79399;SDS011;68856;45.586;10.264;2023-04-24T11:39:14;1.58;;;1.42;;
79399;SDS011;68856;45.586;10.264;2023-04-24T11:41:40;1.67;;;1.58;;
79399;SDS011;68856;45.586;10.264;2023-04-24T11:44:08;2.03;;;1.80;;
79399;SDS011;68856;45.586;10.264;2023-04-24T11:46:35;2.65;;;1.83;;
79399;SDS011;68856;45.586;10.264;2023-04-24T11:49:02;2.47;;;2.05;;
79399;SDS011;68856;45.586;10.264;2023-04-24T11:51:29;2.20;;;2.00;;
79399;SDS011;68856;45.586;10.264;2023-04-24T11:53:56;2.30;;;2.10;;
79399;SDS011;68856;45.586;10.264;2023-04-24T11:56:24;2.33;;;2.13;;
79399;SDS011;68856;45.586;10.264;2023-04-24T11:58:53;2.20;;;2.00;;
79399;SDS011;68856;45.586;10.264;2023-04-24T12:01:22;2.65;;;2.20;;
79399;SDS011;68856;45.586;10.264;2023-04-24T12:03:48;2.08;;;1.88;;
79399;SDS011;68856;45.586;10.264;2023-04-24T12:06:18;2.70;;;2.50;;
79399;SDS011;68856;45.586;10.264;2023-04-24T12:08:48;2.50;;;2.30;;
79399;SDS011;68856;45.586;10.264;2023-04-24T12:11:17;2.78;;;2.15;;
79399;SDS011;68856;45.586;10.264;2023-04-24T12:13:44;2.35;;;2.15;;
79399;SDS011;68856;45.586;10.264;2023-04-24T12:16:10;1.65;;;1.55;;
79399;SDS011;68856;45.586;10.264;2023-04-24T12:18:44;1.90;;;1.80;;
79399;SDS011;68856;45.586;10.264;2023-04-24T12:21:14;2.58;;;2.38;;
79399;SDS011;68856;45.586;10.264;2023-04-24T12:23:42;2.42;;;1.98;;
79399;SDS011;68856;45.586;10.264;2023-04-24T12:26:16;1.77;;;1.67;;
79399;SDS011;68856;45.586;10.264;2023-04-24T12:28:45;3.05;;;2.33;;
79399;SDS011;68856;45.586;10.264;2023-04-24T12:31:16;2.05;;;1.85;;
79399;SDS011;68856;45.586;10.264;2023-04-24T12:33:45;1.83;;;1.73;;
79399;SDS011;68856;45.586;10.264;2023-04-24T12:36:12;1.25;;;1.15;;
79399;SDS011;68856;45.586;10.264;2023-04-24T12:38:39;1.98;;;1.65;;
79399;SDS011;68856;45.586;10.264;2023-04-24T12:41:10;1.67;;;1.38;;
79399;SDS011;68856;45.586;10.264;2023-04-24T12:43:38;1.70;;;1.60;;
79399;SDS011;68856;45.586;10.264;2023-04-24T12:46:15;1.35;;;1.25;;
79399;SDS011;68856;45.586;10.264;2023-04-24T12:48:41;1.48;;;1.38;;
79399;SDS011;68856;45.586;10.264;2023-04-24T12:51:08;1.73;;;1.52;;
79399;SDS011;68856;45.586;10.264;2023-04-24T12:53:34;1.92;;;1.83;;
79399;SDS011;68856;45.586;10.264;2023-04-24T12:56:00;1.52;;;1.38;;
79399;SDS011;68856;45.586;10.264;2023-04-24T12:58:27;1.70;;;1.58;;
79399;SDS011;68856;45.586;10.264;2023-04-24T13:00:53;1.50;;;1.40;;
79399;SDS011;68856;45.586;10.264;2023-04-24T13:03:19;2.13;;;1.88;;
79399;SDS011;68856;45.586;10.264;2023-04-24T13:05:47;1.45;;;1.35;;
79399;SDS011;68856;45.586;10.264;2023-04-24T13:08:13;1.95;;;1.77;;
79399;SDS011;68856;45.586;10.264;2023-04-24T13:10:39;1.70;;;1.60;;
79399;SDS011;68856;45.586;10.264;2023-04-24T13:13:06;2.20;;;2.00;;
79399;SDS011;68856;45.586;10.264;2023-04-24T13:15:33;2.35;;;2.08;;
79399;SDS011;68856;45.586;10.264;2023-04-24T13:17:59;2.42;;;2.15;;
79399;SDS011;68856;45.586;10.264;2023-04-24T13:20:26;2.10;;;2.00;;
79399;SDS011;68856;45.586;10.264;2023-04-24T13:22:52;2.63;;;2.17;;
79399;SDS011;68856;45.586;10.264;2023-04-24T13:25:18;2.58;;;2.15;;
79399;SDS011;68856;45.586;10.264;2023-04-24T13:27:47;2.95;;;2.13;;
79399;SDS011;68856;45.586;10.264;2023-04-24T13:30:13;3.17;;;2.03;;
79399;SDS011;68856;45.586;10.264;2023-04-24T13:32:39;2.78;;;2.50;;
79399;SDS011;68856;45.586;10.264;2023-04-24T13:35:06;2.53;;;2.20;;
79399;SDS011;68856;45.586;10.264;2023-04-24T13:37:33;3.38;;;3.08;;
79399;SDS011;68856;45.586;10.264;2023-04-24T13:39:59;2.95;;;2.67;;
79399;SDS011;68856;45.586;10.264;2023-04-24T13:42:25;3.25;;;2.95;;
79399;SDS011;68856;45.586;10.264;2023-04-24T13:44:51;3.90;;;3.15;;
79399;SDS011;68856;45.586;10.264;2023-04-24T13:47:19;4.75;;;3.30;;
79399;SDS011;68856;45.586;10.264;2023-04-24T13:49:45;3.33;;;3.00;;
79399;SDS011;68856;45.586;10.264;2023-04-24T13:52:11;3.92;;;3.55;;
79399;SDS011;68856;45.586;10.264;2023-04-24T13:54:37;4.45;;;3.40;;
79399;SDS011;68856;45.586;10.264;2023-04-24T13:57:03;4.30;;;3.30;;
79399;SDS011;68856;45.586;10.264;2023-04-24T13:59:30;4.50;;;3.72;;
79399;SDS011;68856;45.586;10.264;2023-04-24T14:01:57;4.65;;;3.80;;
79399;SDS011;68856;45.586;10.264;2023-04-24T14:04:24;6.18;;;3.75;;
79399;SDS011;68856;45.586;10.264;2023-04-24T14:06:50;5.53;;;4.20;;
79399;SDS011;68856;45.586;10.264;2023-04-24T14:09:16;4.43;;;3.90;;
79399;SDS011;68856;45.586;10.264;2023-04-24T14:11:42;5.35;;;4.00;;
79399;SDS011;68856;45.586;10.264;2023-04-24T14:14:09;4.45;;;3.63;;
79399;SDS011;68856;45.586;10.264;2023-04-24T14:16:35;4.90;;;4.15;;
79399;SDS011;68856;45.586;10.264;2023-04-24T14:19:02;5.00;;;4.43;;
79399;SDS011;68856;45.586;10.264;2023-04-24T14:21:30;5.55;;;4.35;;
79399;SDS011;68856;45.586;10.264;2023-04-24T14:23:57;5.43;;;3.90;;
79399;SDS011;68856;45.586;10.264;2023-04-24T14:26:23;5.85;;;3.88;;
79399;SDS011;68856;45.586;10.264;2023-04-24T14:28:50;4.45;;;3.72;;
79399;SDS011;68856;45.586;10.264;2023-04-24T14:31:18;7.38;;;4.15;;
79399;SDS011;68856;45.586;10.264;2023-04-24T14:33:44;4.45;;;4.00;;
79399;SDS011;68856;45.586;10.264;2023-04-24T14:36:10;4.93;;;3.75;;
79399;SDS011;68856;45.586;10.264;2023-04-24T14:38:37;4.13;;;3.47;;
79399;SDS011;68856;45.586;10.264;2023-04-24T14:41:03;3.67;;;3.28;;